createdAt,value
2019-02-08T00:02:18.516Z,8.73
2019-02-08T00:04:50.109Z,7.27
2019-02-08T00:07:20.736Z,8.57
2019-02-08T00:09:51.434Z,6.07
2019-02-08T00:12:22.049Z,7.20
2019-02-08T00:14:52.674Z,6.33
2019-02-08T00:17:23.283Z,5.57
2019-02-08T00:19:54.193Z,4.13
2019-02-08T00:22:24.796Z,4.33
2019-02-08T00:24:55.413Z,3.50
2019-02-08T00:27:26.012Z,4.50
2019-02-08T00:29:56.646Z,4.70
2019-02-08T00:32:27.256Z,3.80
2019-02-08T00:34:58.144Z,3.63
2019-02-08T00:37:28.755Z,3.40
2019-02-08T00:39:59.386Z,3.10
2019-02-08T00:42:29.980Z,3.77
2019-02-08T00:45:00.604Z,3.17
2019-02-08T00:47:31.273Z,3.13
2019-02-08T01:16:41.377Z,4.20
2019-02-08T01:19:11.957Z,4.77
2019-02-08T01:21:42.565Z,3.70
2019-02-08T01:24:13.174Z,3.90
2019-02-08T01:26:43.803Z,3.60
2019-02-08T01:29:14.404Z,4.40
2019-02-08T01:31:45.029Z,4.23
2019-02-08T01:34:15.563Z,3.90
2019-02-08T01:36:46.195Z,4.20
2019-02-08T01:39:16.729Z,4.50
2019-02-08T01:41:47.302Z,4.20
2019-02-08T01:44:17.825Z,3.90
2019-02-08T01:46:48.442Z,3.73
2019-02-08T01:49:19.109Z,3.07
2019-02-08T01:51:49.661Z,3.50
2019-02-08T01:54:20.260Z,3.50
2019-02-08T01:56:50.881Z,3.20
2019-02-08T01:59:21.478Z,3.43
2019-02-08T02:01:52.029Z,3.43
2019-02-08T02:04:22.748Z,4.10
2019-02-08T02:06:53.362Z,3.37
2019-02-08T02:09:23.954Z,3.67
2019-02-08T02:11:54.561Z,3.60
2019-02-08T02:14:25.077Z,3.30
2019-02-08T02:16:55.724Z,3.37
2019-02-08T02:19:26.400Z,3.03
2019-02-08T02:21:57.087Z,3.40
2019-02-08T02:24:27.605Z,3.63
2019-02-08T02:26:58.218Z,3.20
2019-02-08T02:29:28.814Z,3.40
2019-02-08T02:31:59.370Z,3.27
2019-02-08T02:34:29.974Z,3.67
2019-02-08T02:37:00.526Z,5.23
2019-02-08T02:39:31.134Z,3.30
2019-02-08T02:42:01.825Z,4.00
2019-02-08T02:44:32.488Z,3.10
2019-02-08T02:47:03.105Z,3.53
2019-02-08T02:49:33.641Z,3.37
2019-02-08T02:52:04.276Z,4.00
2019-02-08T02:54:34.864Z,3.93
2019-02-08T02:57:05.404Z,4.37
2019-02-08T02:59:35.921Z,3.80
2019-02-08T03:02:06.662Z,3.67
2019-02-08T03:04:37.242Z,3.40
2019-02-08T03:07:07.821Z,3.50
2019-02-08T03:09:38.502Z,4.60
2019-02-08T03:12:09.185Z,4.00
2019-02-08T03:14:39.784Z,2.97
2019-02-08T03:17:10.412Z,3.93
2019-02-08T03:19:41.126Z,4.07
2019-02-08T03:22:11.709Z,2.87
2019-02-08T03:24:42.392Z,3.07
2019-02-08T03:27:13.012Z,2.60
2019-02-08T03:29:43.617Z,3.43
2019-02-08T03:32:15.279Z,3.17
2019-02-08T03:34:45.965Z,3.23
2019-02-08T03:37:16.585Z,3.70
2019-02-08T03:39:47.194Z,4.07
2019-02-08T03:42:17.820Z,3.30
2019-02-08T03:44:48.349Z,3.90
2019-02-08T03:47:18.958Z,4.60
2019-02-08T03:49:49.491Z,3.50
2019-02-08T03:52:20.101Z,3.90
2019-02-08T03:54:50.626Z,3.40
2019-02-08T03:57:21.233Z,3.57
2019-02-08T03:59:51.766Z,4.30
2019-02-08T04:02:22.489Z,3.73
2019-02-08T04:04:53.082Z,4.33
2019-02-08T04:07:23.690Z,4.00
2019-02-08T04:09:54.281Z,3.67
2019-02-08T04:12:24.885Z,3.40
2019-02-08T04:14:55.414Z,3.00
2019-02-08T04:17:25.952Z,3.70
2019-02-08T04:19:57.512Z,3.90
2019-02-08T04:22:28.063Z,3.57
2019-02-08T04:24:58.658Z,3.30
2019-02-08T04:27:29.557Z,3.10
2019-02-08T04:30:00.168Z,3.57
2019-02-08T04:32:30.776Z,3.60
2019-02-08T04:35:01.306Z,3.53
2019-02-08T04:37:32.008Z,4.10
2019-02-08T04:40:02.681Z,4.93
2019-02-08T04:42:33.385Z,4.50
2019-02-08T04:45:04.006Z,4.47
2019-02-08T04:47:34.653Z,4.03
2019-02-08T04:50:07.490Z,3.83
2019-02-08T04:52:38.121Z,4.00
2019-02-08T04:55:09.297Z,3.70
2019-02-08T04:57:39.884Z,4.20
2019-02-08T05:00:22.128Z,3.83
2019-02-08T05:02:52.773Z,4.30
2019-02-08T05:05:23.284Z,3.73
2019-02-08T05:07:53.941Z,3.53
2019-02-08T05:10:25.912Z,4.43
2019-02-08T05:12:56.552Z,4.57
2019-02-08T05:15:28.156Z,3.87
2019-02-08T05:17:58.853Z,4.00
2019-02-08T05:20:29.714Z,4.03
2019-02-08T05:23:00.364Z,4.13
2019-02-08T05:25:32.010Z,3.97
2019-02-08T05:28:02.693Z,3.80
2019-02-08T05:30:34.584Z,4.20
2019-02-08T05:33:06.121Z,3.73
2019-02-08T05:35:37.110Z,4.63
2019-02-08T05:38:07.730Z,4.20
2019-02-08T05:40:38.251Z,3.73
2019-02-08T05:43:08.880Z,4.03
2019-02-08T05:45:39.490Z,4.03
2019-02-08T05:48:10.201Z,3.70
2019-02-08T05:50:40.881Z,4.47
2019-02-08T05:53:11.508Z,5.30
2019-02-08T05:55:42.046Z,4.70
2019-02-08T05:58:12.670Z,4.80
2019-02-08T06:00:50.987Z,4.33
2019-02-08T06:03:21.729Z,4.30
2019-02-08T06:05:52.697Z,4.60
2019-02-08T06:08:23.308Z,3.97
2019-02-08T06:10:53.938Z,4.93
2019-02-08T06:13:24.478Z,4.13
2019-02-08T06:15:55.076Z,4.93
2019-02-08T06:18:25.714Z,4.83
2019-02-08T06:20:56.319Z,4.20
2019-02-08T06:23:27.107Z,4.47
2019-02-08T06:25:57.762Z,4.50
2019-02-08T06:28:28.381Z,5.27
2019-02-08T06:30:58.994Z,5.17
2019-02-08T06:33:29.609Z,10.57
2019-02-08T06:36:00.133Z,5.03
2019-02-08T06:38:30.690Z,4.83
2019-02-08T06:41:01.302Z,4.50
2019-02-08T06:43:31.925Z,5.30
2019-02-08T06:46:02.593Z,5.27
2019-02-08T06:48:33.232Z,5.13
2019-02-08T06:51:04.235Z,4.60
2019-02-08T06:53:34.954Z,5.20
2019-02-08T06:56:06.691Z,4.43
2019-02-08T06:58:41.581Z,5.47
2019-02-08T07:01:29.868Z,5.13
2019-02-08T07:04:18.125Z,6.13
2019-02-08T07:07:14.068Z,6.13
2019-02-08T07:10:02.332Z,5.60
2019-02-08T07:12:57.901Z,6.10
2019-02-08T07:15:36.442Z,9.57
2019-02-08T07:18:44.216Z,8.90
2019-02-08T07:21:25.765Z,7.03
2019-02-08T07:24:33.569Z,6.50
2019-02-08T07:27:26.230Z,6.00
2019-02-08T07:30:04.063Z,7.43
2019-02-08T07:32:39.513Z,6.30
2019-02-08T07:35:28.023Z,6.27
2019-02-08T07:38:25.616Z,6.00
2019-02-08T07:41:19.497Z,6.70
2019-02-08T07:44:08.906Z,6.33
2019-02-08T07:47:01.585Z,13.27
2019-02-08T07:49:52.644Z,15.10
2019-02-08T07:52:54.109Z,12.80
2019-02-08T07:55:42.338Z,27.90
2019-02-08T07:58:30.607Z,39.20
2019-02-08T08:01:38.750Z,17.07
2019-02-08T08:04:19.681Z,17.97
2019-02-08T08:07:11.970Z,9.90
2019-02-08T08:10:01.569Z,12.80
2019-02-08T08:12:53.354Z,15.90
2019-02-08T08:15:42.050Z,16.03
2019-02-08T08:18:29.081Z,10.20
2019-02-08T08:21:27.470Z,6.60
2019-02-08T08:24:29.277Z,6.67
2019-02-08T08:27:22.516Z,6.40
2019-02-08T08:30:10.706Z,6.63
2019-02-08T08:32:51.810Z,6.97
2019-02-08T08:36:02.033Z,5.93
2019-02-08T08:38:53.299Z,5.90
2019-02-08T08:42:03.881Z,5.80
2019-02-08T08:45:21.457Z,6.40
2019-02-08T08:48:27.385Z,6.57
2019-02-08T08:51:51.090Z,6.30
2019-02-08T08:54:48.432Z,6.10
2019-02-08T08:57:45.333Z,6.33
2019-02-08T09:01:04.350Z,6.40
2019-02-08T09:04:08.145Z,6.87
2019-02-08T09:07:24.641Z,9.37
2019-02-08T09:10:31.565Z,7.77
2019-02-08T09:13:27.437Z,9.90
2019-02-08T09:16:29.810Z,9.30
2019-02-08T09:19:41.715Z,8.30
2019-02-08T09:22:53.057Z,8.87
2019-02-08T09:25:35.393Z,8.47
2019-02-08T09:28:47.192Z,5.17
2019-02-08T09:32:07.849Z,5.47
2019-02-08T09:35:44.120Z,5.07
2019-02-08T09:38:50.190Z,4.77
2019-02-08T09:42:07.521Z,4.10
2019-02-08T09:45:17.289Z,3.77
2019-02-08T09:48:07.497Z,4.03
2019-02-08T09:51:47.402Z,4.07
2019-02-08T09:54:47.037Z,4.20
2019-02-08T09:58:14.271Z,3.87
2019-02-08T10:01:20.379Z,2.87
2019-02-08T10:04:40.823Z,2.80
2019-02-08T10:07:50.796Z,2.33
2019-02-08T10:10:56.999Z,2.40
2019-02-08T10:14:04.582Z,3.07
2019-02-08T10:17:37.106Z,2.50
2019-02-08T10:20:39.082Z,2.40
2019-02-08T10:23:52.449Z,2.57
2019-02-08T10:26:57.573Z,2.73
2019-02-08T10:30:30.047Z,3.10
2019-02-08T10:33:53.745Z,2.23
2019-02-08T10:37:03.229Z,2.70
2019-02-08T10:40:17.194Z,2.90
2019-02-08T10:43:24.866Z,2.10
2019-02-08T10:46:29.682Z,2.70
2019-02-08T10:49:53.232Z,2.70
2019-02-08T10:53:06.461Z,3.40
2019-02-08T10:56:24.313Z,3.03
2019-02-08T10:59:34.927Z,3.10
2019-02-08T11:03:04.354Z,2.20
2019-02-08T11:06:09.029Z,1.43
2019-02-08T11:09:16.560Z,1.93
2019-02-08T11:12:24.093Z,2.00
2019-02-08T11:15:56.865Z,2.10
2019-02-08T11:19:10.036Z,1.90
2019-02-08T11:21:40.640Z,1.90
2019-02-08T11:24:11.274Z,1.90
2019-02-08T11:26:41.991Z,2.97
2019-02-08T11:29:12.882Z,1.70
2019-02-08T11:31:43.484Z,1.40
2019-02-08T11:34:14.106Z,2.23
2019-02-08T11:36:44.649Z,1.20
2019-02-08T11:39:17.612Z,1.63
2019-02-08T11:41:49.347Z,1.80
2019-02-08T11:44:21.520Z,1.40
2019-02-08T11:46:52.259Z,1.20
2019-02-08T11:49:22.885Z,1.43
2019-02-08T11:51:53.414Z,2.03
2019-02-08T11:54:23.979Z,1.83
2019-02-08T11:56:54.616Z,1.90
2019-02-08T11:59:25.241Z,1.50
2019-02-08T12:01:55.944Z,2.87
2019-02-08T12:04:26.570Z,1.57
2019-02-08T12:06:57.264Z,1.63
2019-02-08T12:09:27.822Z,1.80
2019-02-08T12:11:58.358Z,1.63
2019-02-08T12:14:30.564Z,1.83
2019-02-08T12:17:01.157Z,1.83
2019-02-08T12:19:31.900Z,2.10
2019-02-08T12:22:02.517Z,1.50
2019-02-08T12:24:33.190Z,1.73
2019-02-08T12:27:03.719Z,1.43
2019-02-08T12:29:34.361Z,1.60
2019-02-08T12:32:04.975Z,1.30
2019-02-08T12:34:35.617Z,1.60
2019-02-08T12:37:06.269Z,1.40
2019-02-08T12:39:36.968Z,1.70
2019-02-08T12:42:07.593Z,1.47
2019-02-08T12:44:38.261Z,1.30
2019-02-08T12:47:08.817Z,1.30
2019-02-08T12:49:39.428Z,1.47
2019-02-08T12:52:09.989Z,1.63
2019-02-08T12:54:40.714Z,1.67
2019-02-08T12:57:11.357Z,1.43
2019-02-08T12:59:41.904Z,1.40
2019-02-08T13:02:12.560Z,1.63
2019-02-08T13:04:43.102Z,2.20
2019-02-08T13:07:13.732Z,2.00
2019-02-08T13:09:44.256Z,1.60
2019-02-08T13:12:15.922Z,4.30
2019-02-08T13:14:46.462Z,1.90
2019-02-08T13:17:17.018Z,1.73
2019-02-08T13:19:47.634Z,2.53
2019-02-08T13:22:18.250Z,1.60
2019-02-08T13:24:48.864Z,1.57
2019-02-08T13:27:19.485Z,2.10
2019-02-08T13:29:50.004Z,2.33
2019-02-08T13:32:20.638Z,2.40
2019-02-08T13:34:51.317Z,2.63
2019-02-08T13:37:21.861Z,2.00
2019-02-08T13:39:52.471Z,2.70
2019-02-08T13:42:23.169Z,1.97
2019-02-08T13:44:53.773Z,1.70
2019-02-08T13:47:24.341Z,1.90
2019-02-08T13:49:54.940Z,2.33
2019-02-08T13:52:26.061Z,4.30
2019-02-08T13:54:56.670Z,10.40
2019-02-08T13:57:27.301Z,5.20
2019-02-08T13:59:57.901Z,4.50
2019-02-08T14:02:28.561Z,1.63
2019-02-08T14:04:59.100Z,3.87
2019-02-08T14:07:29.735Z,1.40
2019-02-08T14:10:00.349Z,2.03
2019-02-08T14:12:30.976Z,2.07
2019-02-08T14:15:01.502Z,4.60
2019-02-08T14:17:32.125Z,3.43
2019-02-08T14:20:02.763Z,1.70
2019-02-08T14:22:33.311Z,2.23
2019-02-08T14:25:05.321Z,1.53
2019-02-08T14:27:35.942Z,2.13
2019-02-08T14:30:11.355Z,2.83
2019-02-08T14:32:41.905Z,1.90
2019-02-08T14:35:12.629Z,1.60
2019-02-08T14:37:43.517Z,1.73
2019-02-08T14:40:16.813Z,1.70
2019-02-08T14:42:47.493Z,1.80
2019-02-08T14:45:18.305Z,1.60
2019-02-08T14:47:49.037Z,2.10
2019-02-08T14:50:21.382Z,1.77
2019-02-08T14:52:52.164Z,1.60
2019-02-08T14:55:22.888Z,1.77
2019-02-08T14:57:54.745Z,1.47
2019-02-08T15:00:25.430Z,1.80
2019-02-08T15:02:57.045Z,1.50
2019-02-08T15:05:27.579Z,1.70
2019-02-08T15:07:58.205Z,2.00
2019-02-08T15:10:37.793Z,1.60
2019-02-08T15:13:08.464Z,1.43
2019-02-08T15:15:38.985Z,1.60
2019-02-08T15:18:09.547Z,1.40
2019-02-08T15:20:40.141Z,1.67
2019-02-08T15:23:10.757Z,1.90
2019-02-08T15:25:41.441Z,2.00
2019-02-08T15:28:12.081Z,2.10
2019-02-08T15:30:42.681Z,2.50
2019-02-08T15:33:13.314Z,2.00
2019-02-08T15:35:43.977Z,2.10
2019-02-08T15:38:14.677Z,2.47
2019-02-08T15:40:47.818Z,3.93
2019-02-08T15:43:20.153Z,3.97
2019-02-08T15:45:59.490Z,4.70
2019-02-08T15:48:30.117Z,3.97
2019-02-08T15:51:00.721Z,6.63
2019-02-08T15:53:31.345Z,6.77
2019-02-08T15:56:13.867Z,5.47
2019-02-08T15:58:44.417Z,4.77
2019-02-08T16:01:15.051Z,3.70
2019-02-08T16:03:45.702Z,5.63
2019-02-08T16:06:16.327Z,3.97
2019-02-08T16:08:47.025Z,6.07
2019-02-08T16:11:17.545Z,6.13
2019-02-08T16:13:48.101Z,8.90
2019-02-08T16:16:18.977Z,7.73
2019-02-08T16:18:49.524Z,9.20
2019-02-08T16:21:20.157Z,9.50
2019-02-08T16:23:50.716Z,8.87
2019-02-08T16:26:21.408Z,7.20
2019-02-08T16:28:52.805Z,7.40
2019-02-08T16:31:23.420Z,6.67
2019-02-08T16:33:54.050Z,8.53
2019-02-08T16:36:24.657Z,9.17
2019-02-08T16:38:55.245Z,9.53
2019-02-08T16:41:25.846Z,9.93
2019-02-08T16:43:56.753Z,9.80
2019-02-08T16:46:27.369Z,9.43
2019-02-08T16:48:58.084Z,12.00
2019-02-08T16:51:28.776Z,12.50
2019-02-08T16:53:59.473Z,12.00
2019-02-08T16:56:30.090Z,13.40
2019-02-08T16:59:00.794Z,13.50
2019-02-08T17:01:31.421Z,15.50
2019-02-08T17:04:01.969Z,19.83
2019-02-08T17:06:32.657Z,22.00
2019-02-08T17:09:03.253Z,23.60
2019-02-08T17:11:35.456Z,27.00
2019-02-08T17:14:06.076Z,27.30
2019-02-08T17:16:38.125Z,29.50
2019-02-08T17:19:08.765Z,22.57
2019-02-08T17:21:39.301Z,17.83
2019-02-08T17:24:09.857Z,16.63
2019-02-08T17:26:40.477Z,15.80
2019-02-08T17:29:11.113Z,13.20
2019-02-08T17:31:42.550Z,11.30
2019-02-08T17:34:13.247Z,10.03
2019-02-08T17:36:43.784Z,10.03
2019-02-08T17:39:14.831Z,8.30
2019-02-08T17:41:45.468Z,12.10
2019-02-08T17:44:16.087Z,12.60
2019-02-08T17:46:46.839Z,12.43
2019-02-08T17:49:17.537Z,14.73
2019-02-08T17:51:48.151Z,16.73
2019-02-08T17:54:25.475Z,9.00
2019-02-08T17:56:51.000Z,8.07
2019-02-08T17:59:21.748Z,8.53
2019-02-08T18:01:52.453Z,13.83
2019-02-08T18:04:23.158Z,11.40
2019-02-08T18:06:53.761Z,11.07
2019-02-08T18:09:24.325Z,11.63
2019-02-08T18:11:54.935Z,10.63
2019-02-08T18:14:25.481Z,11.43
2019-02-08T18:16:56.097Z,9.50
2019-02-08T18:19:26.641Z,8.50
2019-02-08T18:21:57.252Z,8.80
2019-02-08T18:24:27.800Z,7.33
2019-02-08T18:26:58.407Z,9.03
2019-02-08T18:29:29.029Z,7.37
2019-02-08T18:31:59.561Z,7.97
2019-02-08T18:34:30.100Z,9.13
2019-02-08T18:37:00.641Z,6.23
2019-02-08T18:39:31.262Z,4.67
2019-02-08T18:42:01.946Z,8.63
2019-02-08T18:44:32.638Z,10.20
2019-02-08T18:47:03.170Z,8.00
2019-02-08T18:49:33.739Z,7.17
2019-02-08T18:52:04.344Z,5.70
2019-02-08T18:54:34.973Z,5.10
2019-02-08T18:57:05.573Z,5.27
2019-02-08T18:59:36.184Z,5.80
2019-02-08T19:02:06.725Z,6.20
2019-02-08T19:04:37.271Z,4.67
2019-02-08T19:07:09.021Z,5.07
2019-02-08T19:09:39.648Z,4.90
2019-02-08T19:12:10.306Z,4.23
2019-02-08T19:14:40.858Z,3.70
2019-02-08T19:17:11.548Z,3.80
2019-02-08T19:19:42.169Z,5.10
2019-02-08T19:22:12.696Z,5.67
2019-02-08T19:24:43.241Z,4.93
2019-02-08T19:27:13.857Z,8.07
2019-02-08T19:29:44.491Z,8.73
2019-02-08T19:32:15.049Z,8.37
2019-02-08T19:34:45.729Z,6.40
2019-02-08T19:37:16.382Z,6.30
2019-02-08T19:39:47.092Z,13.90
2019-02-08T19:42:17.745Z,23.00
2019-02-08T19:44:48.377Z,12.37
2019-02-08T19:47:18.998Z,10.20
2019-02-08T19:49:49.678Z,13.70
2019-02-08T19:52:20.226Z,9.50
2019-02-08T19:54:50.789Z,11.70
2019-02-08T19:57:21.417Z,8.40
2019-02-08T19:59:52.135Z,9.13
2019-02-08T20:02:22.864Z,13.10
2019-02-08T20:04:53.477Z,9.87
2019-02-08T20:07:24.197Z,10.77
2019-02-08T20:09:54.817Z,10.17
2019-02-08T20:12:25.533Z,9.57
2019-02-08T20:14:56.168Z,9.27
2019-02-08T20:17:26.817Z,8.30
2019-02-08T20:19:57.449Z,13.40
2019-02-08T20:22:28.092Z,14.87
2019-02-08T20:24:58.801Z,13.30
2019-02-08T20:27:29.365Z,15.80
2019-02-08T20:29:59.997Z,7.57
2019-02-08T20:32:30.728Z,8.70
2019-02-08T20:35:01.363Z,11.00
2019-02-08T20:37:32.089Z,10.20
2019-02-08T20:40:02.768Z,13.77
2019-02-08T20:42:33.428Z,10.20
2019-02-08T20:45:04.250Z,8.80
2019-02-08T20:47:34.813Z,13.37
2019-02-08T20:50:06.426Z,10.50
2019-02-08T20:52:37.140Z,45.27
2019-02-08T20:55:08.097Z,27.73
2019-02-08T20:57:38.696Z,11.23
2019-02-08T21:00:25.061Z,11.10
2019-02-08T21:02:57.248Z,12.87
2019-02-08T21:05:28.728Z,13.77
2019-02-08T21:07:59.705Z,11.03
2019-02-08T21:10:31.152Z,14.10
2019-02-08T21:13:01.820Z,12.73
2019-02-08T21:15:32.510Z,11.87
2019-02-08T21:18:05.009Z,11.03
2019-02-08T21:20:37.621Z,10.80
2019-02-08T21:23:09.594Z,9.60
2019-02-08T21:25:40.376Z,9.90
2019-02-08T21:28:12.185Z,9.60
2019-02-08T21:30:43.250Z,9.37
2019-02-08T21:33:14.253Z,10.33
2019-02-08T21:35:45.631Z,9.93
2019-02-08T21:38:16.373Z,11.03
2019-02-08T21:40:47.409Z,8.90
2019-02-08T21:43:18.172Z,9.17
2019-02-08T21:45:48.816Z,8.57
2019-02-08T21:48:19.514Z,9.93
2019-02-08T21:50:50.214Z,9.57
2019-02-08T21:53:20.957Z,9.67
2019-02-08T21:55:51.701Z,8.23
2019-02-08T21:58:22.457Z,8.00
2019-02-08T22:00:53.081Z,8.70
2019-02-08T22:03:23.833Z,7.60
2019-02-08T22:06:06.281Z,9.00
2019-02-08T22:08:37.043Z,8.87
2019-02-08T22:11:07.770Z,8.70
2019-02-08T22:13:38.602Z,7.93
2019-02-08T22:16:09.346Z,11.37
2019-02-08T22:18:41.652Z,9.83
2019-02-08T22:21:12.526Z,9.80
2019-02-08T22:23:43.226Z,7.37
2019-02-08T22:26:13.813Z,6.03
2019-02-08T22:28:45.775Z,7.50
2019-02-08T22:31:16.785Z,6.77
2019-02-08T22:33:47.544Z,7.00
2019-02-08T22:36:18.229Z,6.60
2019-02-08T22:38:48.914Z,6.10
2019-02-08T22:41:19.601Z,6.90
2019-02-08T22:43:50.226Z,6.80
2019-02-08T22:46:20.887Z,8.30
2019-02-08T22:48:51.577Z,7.60
2019-02-08T22:51:22.366Z,7.50
2019-02-08T22:53:53.060Z,9.13
2019-02-08T22:56:23.777Z,9.33
2019-02-08T22:58:54.610Z,10.13
2019-02-08T23:01:35.852Z,10.23
2019-02-08T23:04:10.928Z,7.73
2019-02-08T23:06:44.949Z,7.03
2019-02-08T23:09:23.264Z,8.10
2019-02-08T23:11:53.889Z,7.13
2019-02-08T23:14:24.606Z,8.53
2019-02-08T23:16:55.233Z,8.10
2019-02-08T23:19:25.798Z,10.93
2019-02-08T23:21:56.425Z,11.60
2019-02-08T23:24:27.066Z,10.10
2019-02-08T23:26:57.695Z,12.00
2019-02-08T23:29:30.292Z,12.50
2019-02-08T23:32:00.719Z,10.97
2019-02-08T23:34:31.377Z,12.17
2019-02-08T23:37:02.010Z,11.70
2019-02-08T23:39:32.742Z,9.93
2019-02-08T23:42:03.383Z,10.47
2019-02-08T23:44:34.089Z,11.53
2019-02-08T23:47:04.649Z,10.80
2019-02-08T23:49:35.306Z,11.30
2019-02-08T23:52:06.016Z,10.63
2019-02-08T23:54:36.685Z,9.63
2019-02-08T23:57:07.393Z,8.93
2019-02-08T23:59:38.488Z,8.77
